CET,Max TemperatureF,Mean TemperatureF,Min TemperatureF,Max Dew PointF,MeanDew PointF,Min DewpointF,Max Humidity, Mean Humidity, Min Humidity, Max Sea Level PressureIn, Mean Sea Level PressureIn, Min Sea Level PressureIn, Max VisibilityMiles, Mean VisibilityMiles, Min VisibilityMiles, Max Wind SpeedMPH, Mean Wind SpeedMPH, Max Gust SpeedMPH,PrecipitationIn, CloudCover, Events, WindDirDegrees
2013-10-1,53,50,48,46,41,37,87,72,58,29.92,29.82,29.74,6,6,6,20,12,,0.00,8,Rain,35
2013-10-2,53,50,46,43,36,23,87,63,35,30.21,30.06,29.92,6,6,6,18,12,27,0.00,6,,32
2013-10-3,51,43,35,30,25,21,65,52,32,30.51,30.41,30.33,6,6,6,18,9,22,0.00,3,,20
2013-10-4,51,40,28,30,25,21,87,59,30,30.51,30.48,30.42,,,,11,4,,0.00,,,19
2013-10-5,57,42,26,30,28,25,100,61,31,30.42,30.32,30.24,6,5,3,9,2,,0.00,1,,106
2013-10-6,64,48,32,34,31,27,81,57,27,30.30,30.27,30.24,3,1,0,4,2,,0.00,,,84
2013-10-7,66,50,35,36,33,28,93,55,24,30.36,30.33,30.30,3,3,3,7,2,,0.00,,,42
2013-10-8,68,54,39,41,36,32,81,56,28,30.36,30.31,30.24,3,3,3,7,2,,0.00,,,57
2013-10-9,62,53,44,52,42,36,100,72,45,30.24,30.14,30.04,6,4,2,9,2,,0.00,8,Rain,82
2013-10-10,57,54,50,55,52,50,100,96,88,30.04,29.95,29.92,3,2,0,9,3,,0.00,7,Fog-Rain,107
2013-10-11,73,60,46,55,52,46,100,79,50,30.06,30.00,29.95,6,3,0,13,7,,0.00,4,Fog-Rain,103
2013-10-12,75,64,53,57,55,52,94,74,50,30.15,30.11,30.06,6,4,2,11,5,,0.00,4,Rain-Thunderstorm,133
2013-10-13,69,61,53,61,58,52,100,88,64,30.18,30.14,30.09,6,3,0,7,4,,0.00,6,Fog-Rain-Thunderstorm,217
2013-10-14,69,56,44,52,49,45,100,78,46,30.18,30.15,30.06,6,5,1,7,2,,0.00,6,Fog-Rain,347
2013-10-15,68,58,48,59,52,46,100,85,52,30.06,29.95,29.83,6,5,2,13,3,,0.00,4,Rain-Thunderstorm,236
2013-10-16,55,50,46,54,50,46,100,96,93,29.80,29.65,29.56,6,4,1,18,6,31,0.00,8,Rain,281
2013-10-17,62,55,48,52,47,41,94,75,55,29.95,29.85,29.68,6,6,4,16,11,,0.00,7,Rain,321
2013-10-18,60,53,46,46,43,41,87,71,51,30.09,29.98,29.92,6,6,3,20,10,31,0.00,3,Rain,291
2013-10-19,59,48,37,43,39,36,100,73,45,30.30,30.24,30.12,6,3,1,13,5,,0.00,2,Fog,118
2013-10-20,69,56,42,50,45,41,93,69,43,30.27,30.20,30.12,3,3,3,13,7,,0.00,,,166
2013-10-21,68,60,51,54,51,46,94,75,60,30.15,30.12,30.09,6,5,2,9,7,,0.00,6,Rain,230
2013-10-22,69,58,46,57,54,46,100,86,64,30.15,30.14,30.12,6,3,1,7,4,,0.00,4,Rain,154
2013-10-23,75,67,59,57,55,54,94,71,50,30.12,30.07,30.01,6,5,3,20,9,,0.00,6,,177
2013-10-24,75,65,55,55,54,52,94,72,47,30.15,30.13,30.09,3,3,2,13,8,,0.00,3,Fog,201
2013-10-25,71,61,51,55,52,50,100,78,50,30.21,30.16,30.12,5,3,1,9,3,,0.00,2,Fog,157
2013-10-26,73,62,51,59,53,50,100,83,50,30.15,30.12,30.09,5,2,0,7,3,,0.00,3,Fog,186
2013-10-27,71,58,44,57,52,45,100,82,53,30.12,30.04,29.95,5,1,0,11,4,,0.00,2,Fog,196
2013-10-28,73,64,55,54,52,46,94,68,41,30.06,29.99,29.95,6,4,2,16,8,,0.00,6,,212
2013-10-29,69,62,55,55,53,52,88,74,56,30.04,29.97,29.92,6,5,2,11,7,,0.00,4,,227
2013-10-30,66,57,48,52,48,41,100,76,56,30.27,30.13,30.04,6,6,6,13,5,,0.00,3,,335
2013-10-31,59,50,42,43,38,34,87,63,35,30.36,30.32,30.30,19,8,0,11,5,,0.00,4,,17